createdAt,value
2023-02-12T00:00:22.976Z,101663.53
2023-02-12T00:02:27.558Z,101670.09
2023-02-12T00:04:32.028Z,101670.32
2023-02-12T00:06:36.417Z,101668.73
2023-02-12T00:08:40.800Z,101666.16
2023-02-12T00:10:45.205Z,101672.38
2023-02-12T00:12:49.783Z,101672.48
2023-02-12T00:14:54.197Z,101677.11
2023-02-12T00:16:58.589Z,101679.19
2023-02-12T00:19:02.986Z,101685.23
2023-02-12T00:21:07.396Z,101686.34
2023-02-12T00:23:11.761Z,101686.01
2023-02-12T00:25:16.746Z,101682.31
2023-02-12T00:27:21.252Z,101679.17
2023-02-12T00:29:25.660Z,101683.19
2023-02-12T00:31:30.295Z,101683.8
2023-02-12T00:33:34.799Z,101687.13
2023-02-12T00:35:39.175Z,101689.93
2023-02-12T00:37:43.838Z,101689.39
2023-02-12T00:39:48.249Z,101689
2023-02-12T00:41:52.695Z,101691.47
2023-02-12T00:43:57.096Z,101697.07
2023-02-12T00:46:01.637Z,101697.98
2023-02-12T00:48:06.169Z,101695.23
2023-02-12T00:50:10.546Z,101696.16
2023-02-12T00:52:15.058Z,101702.25
2023-02-12T00:54:19.472Z,101704.2
2023-02-12T00:56:23.888Z,101695.86
2023-02-12T00:58:28.408Z,101695.83
2023-02-12T01:00:32.833Z,101699.02
2023-02-12T01:02:37.258Z,101699.3
2023-02-12T01:04:41.806Z,101703.97
2023-02-12T01:06:46.252Z,101704.51
2023-02-12T01:08:50.655Z,101707.1
2023-02-12T01:10:55.040Z,101710.94
2023-02-12T01:12:59.422Z,101708.5
2023-02-12T01:15:03.902Z,101709.7
2023-02-12T01:17:08.575Z,101709.88
2023-02-12T01:19:13.293Z,101713.04
2023-02-12T01:21:17.712Z,101719.59
2023-02-12T01:23:22.139Z,101716.52
2023-02-12T01:25:26.532Z,101724.74
2023-02-12T01:27:30.907Z,101726.32
2023-02-12T01:29:35.315Z,101727.73
2023-02-12T01:31:40.295Z,101725.28
2023-02-12T01:33:44.914Z,101721.89
2023-02-12T01:35:49.300Z,101725.28
2023-02-12T01:37:53.835Z,101725.77
2023-02-12T01:40:01.557Z,101730.59
2023-02-12T01:42:05.957Z,101724.7
2023-02-12T01:44:10.398Z,101730.86
2023-02-12T01:46:14.952Z,101746.56
2023-02-12T01:48:19.552Z,101759.02
2023-02-12T01:50:23.929Z,101762.52
2023-02-12T01:52:28.355Z,101763.21
2023-02-12T01:54:32.797Z,101765.2
2023-02-12T01:56:37.272Z,101770.52
2023-02-12T01:58:41.697Z,101770.02
2023-02-12T02:00:46.136Z,101773.93
2023-02-12T02:02:50.640Z,101769.88
2023-02-12T02:04:55.157Z,101773.11
2023-02-12T02:06:59.629Z,101774.84
2023-02-12T02:09:04.043Z,101775.73
2023-02-12T02:11:08.396Z,101775.14
2023-02-12T02:13:12.806Z,101776.7
2023-02-12T02:15:17.174Z,101778.84
2023-02-12T02:17:21.549Z,101777.56
2023-02-12T02:19:25.983Z,101776.02
2023-02-12T02:21:30.432Z,101774.74
2023-02-12T02:23:34.842Z,101775.72
2023-02-12T02:25:39.234Z,101771.48
2023-02-12T02:27:43.706Z,101778.58
2023-02-12T02:29:48.079Z,101777.98
2023-02-12T02:31:52.655Z,101781.08
2023-02-12T02:33:57.114Z,101782.5
2023-02-12T02:36:01.498Z,101777.65
2023-02-12T02:38:05.890Z,101779.55
2023-02-12T02:40:10.259Z,101782.86
2023-02-12T02:42:14.659Z,101785.27
2023-02-12T02:44:19.055Z,101788.21
2023-02-12T02:46:23.586Z,101793.42
2023-02-12T02:48:28.084Z,101791.36
2023-02-12T02:50:32.451Z,101802.95
2023-02-12T02:52:36.874Z,101804.42
2023-02-12T02:54:41.310Z,101807.89
2023-02-12T02:56:45.740Z,101805.38
2023-02-12T02:58:50.140Z,101806.14
2023-02-12T03:00:54.645Z,101810.98
2023-02-12T03:02:59.237Z,101812.73
2023-02-12T03:05:03.839Z,101813.05
2023-02-12T03:07:08.295Z,101809.88
2023-02-12T03:09:12.687Z,101810.76
2023-02-12T03:11:17.108Z,101815.31
2023-02-12T03:13:21.538Z,101820.47
2023-02-12T03:15:25.917Z,101821.05
2023-02-12T03:17:30.457Z,101826.28
2023-02-12T03:19:34.829Z,101831.34
2023-02-12T03:21:39.204Z,101834.16
2023-02-12T03:23:43.606Z,101836.69
2023-02-12T03:25:47.979Z,101841.05
2023-02-12T03:27:52.393Z,101842.43
2023-02-12T03:29:56.768Z,101841.06
2023-02-12T03:32:01.222Z,101845.46
2023-02-12T03:34:05.642Z,101852.95
2023-02-12T03:36:10.003Z,101856.47
2023-02-12T03:38:14.379Z,101856.16
2023-02-12T03:40:18.802Z,101860.95
2023-02-12T03:42:23.269Z,101859.54
2023-02-12T03:44:27.747Z,101859.52
2023-02-12T03:46:32.114Z,101871.2
2023-02-12T03:48:36.495Z,101872.84
2023-02-12T03:50:40.929Z,101873.07
2023-02-12T03:52:45.307Z,101874.89
2023-02-12T03:54:49.809Z,101876.59
2023-02-12T03:58:29.752Z,101889.89
2023-02-12T04:00:34.158Z,101887.78
2023-02-12T04:02:38.543Z,101886.8
2023-02-12T04:04:43.054Z,101890.86
2023-02-12T04:06:47.655Z,101897.14
2023-02-12T04:08:52.039Z,101901.27
2023-02-12T04:10:56.442Z,101901.32
2023-02-12T04:13:00.811Z,101905.11
2023-02-12T04:15:05.289Z,101906.45
2023-02-12T04:17:10.450Z,101912.89
2023-02-12T04:19:15.214Z,101911.14
2023-02-12T04:21:19.643Z,101915.29
2023-02-12T04:23:24.180Z,101917.13
2023-02-12T04:25:28.558Z,101912.89
2023-02-12T04:27:33.010Z,101915.63
2023-02-12T04:29:37.379Z,101913.86
2023-02-12T04:31:42.166Z,101921.6
2023-02-12T04:33:46.955Z,101922.34
2023-02-12T04:35:51.354Z,101931.13
2023-02-12T04:37:55.798Z,101931.45
2023-02-12T04:40:00.191Z,101933.95
2023-02-12T04:42:04.587Z,101936
2023-02-12T04:44:09.092Z,101937.27
2023-02-12T04:46:13.725Z,101937.13
2023-02-12T04:48:18.279Z,101935.97
2023-02-12T04:50:22.688Z,101939.41
2023-02-12T04:52:27.108Z,101939.28
2023-02-12T04:54:31.775Z,101946
2023-02-12T04:56:36.211Z,101941.78
2023-02-12T04:58:40.633Z,101943.19
2023-02-12T05:00:45.023Z,101944.38
2023-02-12T05:02:49.430Z,101953.59
2023-02-12T05:04:53.922Z,101950.8
2023-02-12T05:06:58.558Z,101951.11
2023-02-12T05:09:02.982Z,101949.34
2023-02-12T05:11:07.519Z,101953.25
2023-02-12T05:13:12.123Z,101959.55
2023-02-12T05:15:16.584Z,101961.67
2023-02-12T05:17:21.003Z,101965.88
2023-02-12T05:19:25.436Z,101972.2
2023-02-12T05:21:29.819Z,101967.83
2023-02-12T05:23:34.326Z,101966.57
2023-02-12T05:25:38.709Z,101970.7
2023-02-12T05:27:43.104Z,101974.36
2023-02-12T05:29:47.614Z,101981.13
2023-02-12T05:31:52.354Z,101981.22
2023-02-12T05:33:57.013Z,101982.66
2023-02-12T05:36:01.417Z,101984.38
2023-02-12T05:38:05.798Z,101987.77
2023-02-12T05:40:10.259Z,101989.42
2023-02-12T05:42:14.763Z,101988.45
2023-02-12T05:44:19.100Z,101986.4
2023-02-12T05:46:23.685Z,101991.52
2023-02-12T05:48:28.190Z,101991.56
2023-02-12T05:50:32.612Z,101997.42
2023-02-12T05:52:37.021Z,102000.77
2023-02-12T05:54:41.373Z,102007.34
2023-02-12T05:56:45.830Z,102015.38
2023-02-12T05:58:50.257Z,102013.13
2023-02-12T06:00:54.638Z,102016.5
2023-02-12T06:02:59.242Z,102016.08
2023-02-12T06:05:03.868Z,102020.94
2023-02-12T06:07:08.380Z,102027.8
2023-02-12T06:09:12.981Z,102031.83
2023-02-12T06:11:17.457Z,102033.03
2023-02-12T06:13:21.862Z,102041.2
2023-02-12T06:15:26.258Z,102041.88
2023-02-12T06:17:30.672Z,102046.48
2023-02-12T06:19:35.071Z,102046.77
2023-02-12T06:21:39.464Z,102056.05
2023-02-12T06:23:43.869Z,102060.84
2023-02-12T06:25:48.224Z,102070.2
2023-02-12T06:27:52.626Z,102066.53
2023-02-12T06:29:57.078Z,102075.56
2023-02-12T06:32:01.858Z,102081.39
2023-02-12T06:34:06.735Z,102080.88
2023-02-12T06:36:11.162Z,102084.33
2023-02-12T06:38:15.549Z,102089.64
2023-02-12T06:40:19.967Z,102091.72
2023-02-12T06:42:24.325Z,102094.04
2023-02-12T06:44:28.806Z,102099.68
2023-02-12T06:46:33.292Z,102101.2
2023-02-12T06:48:37.827Z,102102.4
2023-02-12T06:50:42.326Z,102113.31
2023-02-12T06:52:46.728Z,102112.55
2023-02-12T06:54:51.162Z,102110.7
2023-02-12T06:56:55.547Z,102112.55
2023-02-12T06:58:59.998Z,102115.19
2023-02-12T07:01:04.554Z,102115.89
2023-02-12T07:03:09.036Z,102114.55
2023-02-12T07:05:13.480Z,102118.06
2023-02-12T07:07:17.867Z,102119.3
2023-02-12T07:09:22.277Z,102123.66
2023-02-12T07:11:26.777Z,102123.2
2023-02-12T07:13:31.155Z,102131.8
2023-02-12T07:15:35.573Z,102131.31
2023-02-12T07:17:39.966Z,102135.41
2023-02-12T07:19:44.386Z,102141.78
2023-02-12T07:21:48.764Z,102143.27
2023-02-12T07:23:53.242Z,102137.41
2023-02-12T07:25:58.362Z,102142.73
2023-02-12T07:28:02.932Z,102153.35
2023-02-12T07:30:07.343Z,102153.47
2023-02-12T07:32:11.957Z,102154.81
2023-02-12T07:34:16.433Z,102155.89
2023-02-12T07:36:20.886Z,102153.79
2023-02-12T07:38:25.295Z,102159.8
2023-02-12T07:40:29.703Z,102161.42
2023-02-12T07:42:34.142Z,102158.14
2023-02-12T07:44:38.514Z,102160.73
2023-02-12T07:46:42.919Z,102162.63
2023-02-12T07:48:51.223Z,102166.25
2023-02-12T07:50:55.611Z,102164.98
2023-02-12T07:53:00.012Z,102168.95
2023-02-12T07:55:04.476Z,102170.98
2023-02-12T07:57:08.863Z,102176.23
2023-02-12T07:59:13.305Z,102177.8
2023-02-12T08:01:17.758Z,102181.59
2023-02-12T08:03:22.140Z,102180.27
2023-02-12T08:05:26.558Z,102184.88
2023-02-12T08:07:30.972Z,102185.89
2023-02-12T08:09:35.512Z,102192.31
2023-02-12T08:11:39.909Z,102195.15
2023-02-12T08:13:44.312Z,102201.2
2023-02-12T08:15:48.738Z,102195.94
2023-02-12T08:17:53.156Z,102191.27
2023-02-12T08:19:57.564Z,102193.59
2023-02-12T08:22:01.946Z,102194.74
2023-02-12T08:24:06.357Z,102192.78
2023-02-12T08:26:10.783Z,102191.08
2023-02-12T08:28:15.314Z,102189.05
2023-02-12T08:30:19.962Z,102194.56
2023-02-12T08:32:24.328Z,102198.11
2023-02-12T08:34:28.741Z,102202.86
2023-02-12T08:36:33.154Z,102205.04
2023-02-12T08:38:37.626Z,102203.43
2023-02-12T08:40:42.221Z,102208.84
2023-02-12T08:42:46.770Z,102204.11
2023-02-12T08:44:51.221Z,102202.94
2023-02-12T08:46:55.739Z,102209.09
2023-02-12T08:49:00.169Z,102205.99
2023-02-12T08:51:04.596Z,102210.31
2023-02-12T08:53:09.298Z,102208
2023-02-12T08:55:13.704Z,102211.63
2023-02-12T08:57:18.180Z,102215.03
2023-02-12T08:59:22.570Z,102217.83
2023-02-12T09:01:27.132Z,102219.53
2023-02-12T09:03:31.770Z,102223
2023-02-12T09:05:36.153Z,102227.66
2023-02-12T09:07:40.524Z,102229.42
2023-02-12T09:09:44.965Z,102233
2023-02-12T09:11:49.449Z,102237.45
2023-02-12T09:13:53.992Z,102241.8
2023-02-12T09:15:59.308Z,102234.86
2023-02-12T09:18:03.833Z,102235.19
2023-02-12T09:20:08.234Z,102235.52
2023-02-12T09:22:12.620Z,102241.73
2023-02-12T09:24:16.997Z,102240.42
2023-02-12T09:26:21.409Z,102246.79
2023-02-12T09:28:25.935Z,102250.8
2023-02-12T09:30:30.504Z,102252.11
2023-02-12T09:32:34.998Z,102255.53
2023-02-12T09:34:39.416Z,102261.56
2023-02-12T09:36:43.955Z,102263.09
2023-02-12T09:38:48.349Z,102260.49
2023-02-12T09:40:52.844Z,102261.03
2023-02-12T09:42:57.238Z,102265.55
2023-02-12T09:45:01.914Z,102267.24
2023-02-12T09:47:06.416Z,102266.72
2023-02-12T09:49:10.948Z,102268.16
2023-02-12T09:51:15.479Z,102272.36
2023-02-12T09:53:19.883Z,102276.87
2023-02-12T09:55:24.300Z,102275.16
2023-02-12T09:57:28.745Z,102264.85
2023-02-12T09:59:33.219Z,102264.22
2023-02-12T10:01:37.884Z,102265.36
2023-02-12T10:03:42.428Z,102261
2023-02-12T10:05:46.876Z,102256.51
2023-02-12T10:07:51.448Z,102254.33
2023-02-12T10:09:55.833Z,102245.91
2023-02-12T10:12:00.279Z,102250.17
2023-02-12T10:14:04.752Z,102246
2023-02-12T10:16:09.312Z,102245.32
2023-02-12T10:18:13.902Z,102249.85
2023-02-12T10:20:18.331Z,102248.05
2023-02-12T10:22:22.790Z,102239.98
2023-02-12T10:24:27.222Z,102245.98
2023-02-12T10:26:31.670Z,102241.23
2023-02-12T10:28:36.445Z,102237.98
2023-02-12T10:30:41.046Z,102239.91
2023-02-12T10:32:45.688Z,102239.3
2023-02-12T10:34:50.110Z,102239.58
2023-02-12T10:36:54.514Z,102251.69
2023-02-12T10:38:59.015Z,102245.11
2023-02-12T10:41:03.451Z,102241.64
2023-02-12T10:43:10.807Z,102239.39
2023-02-12T10:45:15.263Z,102239.3
2023-02-12T10:47:19.688Z,102236.86
2023-02-12T10:49:24.234Z,102238.61
2023-02-12T10:51:28.860Z,102235.82
2023-02-12T10:53:33.592Z,102238.44
2023-02-12T10:55:38.111Z,102238.67
2023-02-12T10:57:42.593Z,102238.61
2023-02-12T10:59:47.010Z,102234.17
2023-02-12T11:01:51.576Z,102236.22
2023-02-12T11:03:56.081Z,102236.22
2023-02-12T11:06:00.555Z,102230.72
2023-02-12T11:08:05.021Z,102233.01
2023-02-12T11:10:09.447Z,102229.58
2023-02-12T11:12:13.941Z,102230.06
2023-02-12T11:14:18.378Z,102229.55
2023-02-12T11:16:22.929Z,102227.38
2023-02-12T11:18:27.701Z,102226.69
2023-02-12T11:20:32.149Z,102224.95
2023-02-12T11:22:36.582Z,102215.64
2023-02-12T11:24:41.014Z,102216.7
2023-02-12T11:26:45.394Z,102219.02
2023-02-12T11:28:50.094Z,102221.93
2023-02-12T11:30:54.692Z,102222.48
2023-02-12T11:32:59.396Z,102219.22
2023-02-12T11:35:03.905Z,102216.94
2023-02-12T11:37:08.342Z,102216.55
2023-02-12T11:39:12.776Z,102210.72
2023-02-12T11:41:17.270Z,102218.96
2023-02-12T11:43:21.664Z,102218.95
2023-02-12T11:45:26.081Z,102218.4
2023-02-12T11:47:30.482Z,102219.23
2023-02-12T11:49:34.912Z,102218.54
2023-02-12T11:51:39.333Z,102223.08
2023-02-12T11:53:43.766Z,102216.95
2023-02-12T11:55:48.187Z,102213.2
2023-02-12T11:57:52.577Z,102212.72
2023-02-12T11:59:56.999Z,102216.77
2023-02-12T12:02:01.655Z,102212.2
2023-02-12T12:04:06.127Z,102217.03
2023-02-12T12:06:10.560Z,102222.58
2023-02-12T12:08:17.501Z,102223.56
2023-02-12T12:10:21.913Z,102220.09
2023-02-12T12:12:26.332Z,102223.46
2023-02-12T12:14:30.786Z,102220.09
2023-02-12T12:16:35.556Z,102221
2023-02-12T12:18:40.097Z,102222
2023-02-12T12:20:44.501Z,102216.63
2023-02-12T12:22:48.910Z,102217.16
2023-02-12T12:24:53.341Z,102219.01
2023-02-12T12:26:57.761Z,102219.08
2023-02-12T12:29:02.259Z,102211.14
2023-02-12T12:31:06.830Z,102209.98
2023-02-12T12:33:11.564Z,102207.67
2023-02-12T12:35:16.080Z,102205.23
2023-02-12T12:37:20.661Z,102202.84
2023-02-12T12:39:25.101Z,102204.74
2023-02-12T12:41:29.587Z,102204.69
2023-02-12T12:43:34.153Z,102201.44
2023-02-12T12:45:38.611Z,102198.46
2023-02-12T12:47:43.036Z,102196.8
2023-02-12T12:49:47.448Z,102202.91
2023-02-12T12:51:51.909Z,102202.43
2023-02-12T12:53:57.000Z,102198.1
2023-02-12T12:56:01.434Z,102194.7
2023-02-12T12:58:05.855Z,102198.1
2023-02-12T13:00:10.357Z,102196.7
2023-02-12T13:02:15.022Z,102202.86
2023-02-12T13:04:19.665Z,102197.38
2023-02-12T13:06:24.663Z,102199.63
2023-02-12T13:08:29.015Z,102199.4
2023-02-12T13:10:33.463Z,102199.5
2023-02-12T13:12:37.880Z,102199.64
2023-02-12T13:14:42.261Z,102202.03
2023-02-12T13:16:46.809Z,102201.1
2023-02-12T13:18:51.390Z,102202.73
2023-02-12T13:20:55.804Z,102202.57
2023-02-12T13:23:00.229Z,102205.16
2023-02-12T13:25:04.698Z,102209.25
2023-02-12T13:27:09.105Z,102212.78
2023-02-12T13:29:13.562Z,102208.77
2023-02-12T13:31:35.321Z,102209.8
2023-02-12T13:33:39.910Z,102209.17
2023-02-12T13:35:44.328Z,102211.82
2023-02-12T13:37:48.761Z,102220.5
2023-02-12T13:39:53.264Z,102222.55
2023-02-12T13:41:57.739Z,102220.47
2023-02-12T13:44:02.171Z,102221.58
2023-02-12T13:46:06.696Z,102216.38
2023-02-12T13:48:11.259Z,102219.09
2023-02-12T13:50:15.734Z,102209.25
2023-02-12T13:52:20.152Z,102206.06
2023-02-12T13:54:24.572Z,102203.84
2023-02-12T13:56:29.061Z,102205.44
2023-02-12T13:58:33.531Z,102204.81
2023-02-12T14:00:37.939Z,102200.66
2023-02-12T14:02:42.502Z,102204.95
2023-02-12T14:05:17.952Z,102205.58
2023-02-12T14:07:22.389Z,102205.67
2023-02-12T14:09:26.840Z,102206.03
2023-02-12T14:11:31.239Z,102221.41
2023-02-12T14:13:35.676Z,102220.55
2023-02-12T14:15:40.238Z,102217.42
2023-02-12T14:17:44.757Z,102217.25
2023-02-12T14:19:49.172Z,102214.35
2023-02-12T14:21:53.720Z,102220.46
2023-02-12T14:23:58.115Z,102215.84
2023-02-12T14:26:02.565Z,102211.87
2023-02-12T14:28:07.154Z,102206.58
2023-02-12T14:30:11.636Z,102211.84
2023-02-12T14:32:16.395Z,102211.2
2023-02-12T14:34:20.869Z,102217.43
2023-02-12T14:36:25.411Z,102219.3
2023-02-12T14:38:42.575Z,102219.28
2023-02-12T14:40:51.806Z,102214.5
2023-02-12T14:42:56.400Z,102213.6
2023-02-12T14:45:00.930Z,102210.16
2023-02-12T14:47:05.368Z,102207.92
2023-02-12T14:49:09.763Z,102210.94
2023-02-12T14:51:14.282Z,102218.66
2023-02-12T14:53:18.896Z,102219.65
2023-02-12T14:55:23.360Z,102220.59
2023-02-12T14:57:27.803Z,102213.06
2023-02-12T14:59:32.240Z,102210.23
2023-02-12T15:01:36.765Z,102210.25
2023-02-12T15:03:41.289Z,102203.37
2023-02-12T15:05:45.670Z,102209.31
2023-02-12T15:07:50.126Z,102210
2023-02-12T15:09:54.588Z,102207.37
2023-02-12T15:11:59.065Z,102207.98
2023-02-12T15:14:03.548Z,102205.66
2023-02-12T15:16:08.038Z,102207.72
2023-02-12T15:18:12.622Z,102204.72
2023-02-12T15:20:17.010Z,102210.04
2023-02-12T15:22:21.551Z,102212.11
2023-02-12T15:24:26.066Z,102213.73
2023-02-12T15:26:30.447Z,102212.27
2023-02-12T15:28:35.070Z,102215.7
2023-02-12T15:30:39.627Z,102220.44
2023-02-12T15:32:43.969Z,102216.95
2023-02-12T15:34:48.399Z,102215.48
2023-02-12T15:36:52.790Z,102213.44
2023-02-12T15:38:57.188Z,102222.22
2023-02-12T15:41:01.608Z,102223.78
2023-02-12T15:43:06.022Z,102224.58
2023-02-12T15:45:10.486Z,102232.08
2023-02-12T15:47:15.052Z,102230.42
2023-02-12T15:49:19.578Z,102232.42
2023-02-12T15:51:24.043Z,102222.44
2023-02-12T15:53:28.453Z,102224.51
2023-02-12T15:55:32.986Z,102229.78
2023-02-12T15:57:37.430Z,102229.7
2023-02-12T15:59:41.876Z,102230.92
2023-02-12T16:01:46.336Z,102235.19
2023-02-12T16:03:51.060Z,102235.06
2023-02-12T16:05:56.407Z,102228.84
2023-02-12T16:08:01.447Z,102233.48
2023-02-12T16:10:05.856Z,102236.76
2023-02-12T16:12:10.265Z,102236.8
2023-02-12T16:14:14.671Z,102241.39
2023-02-12T16:16:19.386Z,102240.91
2023-02-12T16:18:23.923Z,102248.69
2023-02-12T16:20:28.465Z,102249.13
2023-02-12T16:22:32.899Z,102257.14
2023-02-12T16:24:37.349Z,102253.97
2023-02-12T16:26:41.800Z,102256.89
2023-02-12T16:28:46.175Z,102253.72
2023-02-12T16:30:50.587Z,102253.97
2023-02-12T16:32:55.109Z,102256.23
2023-02-12T16:34:59.610Z,102257.82
2023-02-12T16:37:04.030Z,102258.14
2023-02-12T16:39:08.488Z,102260.29
2023-02-12T16:41:12.862Z,102259.75
2023-02-12T16:43:17.249Z,102254.42
2023-02-12T16:45:21.783Z,102260
2023-02-12T16:47:26.319Z,102262.27
2023-02-12T16:49:30.930Z,102258.48
2023-02-12T16:51:35.354Z,102255.03
2023-02-12T16:53:39.771Z,102255.11
2023-02-12T16:55:44.181Z,102256.21
2023-02-12T16:57:48.592Z,102256.31
2023-02-12T16:59:53.027Z,102247.77
2023-02-12T17:01:57.507Z,102254.31
2023-02-12T17:04:02.160Z,102254.58
2023-02-12T17:06:06.575Z,102263.73
2023-02-12T17:08:10.989Z,102264.73
2023-02-12T17:10:15.666Z,102266.61
2023-02-12T17:12:20.077Z,102269.16
2023-02-12T17:14:24.549Z,102267.46
2023-02-12T17:16:32.613Z,102266.05
2023-02-12T17:18:37.139Z,102264.8
2023-02-12T17:20:41.617Z,102269.93
2023-02-12T17:22:46.051Z,102273.94
2023-02-12T17:24:50.468Z,102272.38
2023-02-12T17:26:54.890Z,102266.68
2023-02-12T17:28:59.279Z,102269.95
2023-02-12T17:31:03.791Z,102270.59
2023-02-12T17:33:08.250Z,102271.05
2023-02-12T17:35:12.718Z,102277.19
2023-02-12T17:37:17.328Z,102275.36
2023-02-12T17:39:22.230Z,102273.77
2023-02-12T17:41:27.141Z,102272.91
2023-02-12T17:43:31.581Z,102268.91
2023-02-12T17:45:36.107Z,102270.47
2023-02-12T17:47:40.963Z,102272.1
2023-02-12T17:49:45.361Z,102272.72
2023-02-12T17:51:49.792Z,102278.77
2023-02-12T17:53:54.328Z,102272.72
2023-02-12T17:55:58.768Z,102270.2
2023-02-12T17:58:03.200Z,102273.88
2023-02-12T18:00:07.645Z,102277.7
2023-02-12T18:02:12.056Z,102281.27
2023-02-12T18:04:16.876Z,102271.34
2023-02-12T18:06:21.428Z,102270.92
2023-02-12T18:08:25.856Z,102271.58
2023-02-12T18:10:30.288Z,102269.67
2023-02-12T18:12:34.817Z,102277.69
2023-02-12T18:14:39.262Z,102271.65
2023-02-12T18:16:43.908Z,102281.56
2023-02-12T18:18:48.409Z,102278.15
2023-02-12T18:20:52.852Z,102276.56
2023-02-12T18:22:57.689Z,102278.39
2023-02-12T18:25:02.111Z,102272.84
2023-02-12T18:27:06.548Z,102274.33
2023-02-12T18:29:11.299Z,102267.25
2023-02-12T18:31:15.984Z,102265.46
2023-02-12T18:33:20.690Z,102270.81
2023-02-12T18:35:25.203Z,102265.27
2023-02-12T18:37:29.742Z,102265.89
2023-02-12T18:39:34.242Z,102269.33
2023-02-12T18:41:38.661Z,102271.86
2023-02-12T18:43:45.055Z,102272.41
2023-02-12T18:45:49.564Z,102268.68
2023-02-12T18:47:54.077Z,102265.7
2023-02-12T18:49:58.524Z,102263.3
2023-02-12T18:52:03.103Z,102265.77
2023-02-12T18:54:08.780Z,102264.66
2023-02-12T18:56:13.261Z,102267.2
2023-02-12T18:58:17.720Z,102263.25
2023-02-12T19:00:22.216Z,102263.08
2023-02-12T19:02:26.827Z,102259.39
2023-02-12T19:04:31.719Z,102258.13
2023-02-12T19:06:56.962Z,102255.53
2023-02-12T19:09:01.362Z,102260.88
2023-02-12T19:11:05.911Z,102262.53
2023-02-12T19:13:10.431Z,102262.48
2023-02-12T19:15:14.888Z,102263.33
2023-02-12T19:17:19.389Z,102265.3
2023-02-12T19:19:23.821Z,102254.76
2023-02-12T19:21:28.274Z,102257.8
2023-02-12T19:23:32.763Z,102260.08
2023-02-12T19:25:37.200Z,102264.13
2023-02-12T19:27:41.617Z,102266.42
2023-02-12T19:29:46.074Z,102266.03
2023-02-12T19:31:50.920Z,102259.78
2023-02-12T19:33:55.560Z,102267.01
2023-02-12T19:35:59.982Z,102272.48
2023-02-12T19:38:04.415Z,102269.97
2023-02-12T19:40:08.849Z,102271.38
2023-02-12T19:42:13.259Z,102274.48
2023-02-12T19:44:19.714Z,102263.16
2023-02-12T19:46:24.284Z,102265.03
2023-02-12T19:48:28.847Z,102264.62
2023-02-12T19:50:36.171Z,102264.38
2023-02-12T19:52:40.562Z,102262.17
2023-02-12T19:54:45.007Z,102265.45
2023-02-12T19:56:49.478Z,102264.16
2023-02-12T19:58:53.916Z,102268.89
2023-02-12T20:00:58.755Z,102262.2
2023-02-12T20:03:03.331Z,102268.56
2023-02-12T20:05:07.890Z,102273.2
2023-02-12T20:07:12.298Z,102266.15
2023-02-12T20:09:16.718Z,102270.42
2023-02-12T20:11:21.184Z,102270.15
2023-02-12T20:13:25.589Z,102268.55
2023-02-12T20:15:30.217Z,102268.73
2023-02-12T20:17:34.787Z,102270.44
2023-02-12T20:19:39.098Z,102269.95
2023-02-12T20:21:43.500Z,102270.13
2023-02-12T20:23:47.969Z,102277.61
2023-02-12T20:25:52.346Z,102275.19
2023-02-12T20:27:56.821Z,102273.96
2023-02-12T20:30:01.247Z,102272.66
2023-02-12T20:32:05.872Z,102276.97
2023-02-12T20:34:10.454Z,102281.08
2023-02-12T20:36:14.862Z,102286.91
2023-02-12T20:38:19.365Z,102284.27
2023-02-12T20:40:23.934Z,102286.98
2023-02-12T20:42:28.352Z,102283.05
2023-02-12T20:44:32.776Z,102267.73
2023-02-12T20:46:37.276Z,102268
2023-02-12T20:48:42.101Z,102285.78
2023-02-12T20:50:46.460Z,102285.31
2023-02-12T20:52:50.904Z,102286.99
2023-02-12T20:54:55.341Z,102289.16
2023-02-12T20:56:59.799Z,102280.82
2023-02-12T20:59:04.352Z,102286.03
2023-02-12T21:01:08.786Z,102287.59
2023-02-12T21:03:13.288Z,102285.78
2023-02-12T21:05:17.585Z,102283.24
2023-02-12T21:07:22.041Z,102281.39
2023-02-12T21:09:26.556Z,102282.36
2023-02-12T21:11:31.007Z,102286.06
2023-02-12T21:13:35.456Z,102285.17
2023-02-12T21:15:40.313Z,102286.86
2023-02-12T21:17:45.137Z,102289.43
2023-02-12T21:19:49.773Z,102284.45
2023-02-12T21:21:54.195Z,102291.7
2023-02-12T21:23:58.864Z,102288.23
2023-02-12T21:26:04.422Z,102287.5
2023-02-12T21:28:09.813Z,102285.7
2023-02-12T21:30:14.568Z,102280.3
2023-02-12T21:32:19.233Z,102277.45
2023-02-12T21:34:24.026Z,102274.06
2023-02-12T21:36:28.510Z,102275.42
2023-02-12T21:38:33.076Z,102258.91
2023-02-12T21:40:37.903Z,102266.27
2023-02-12T21:42:42.408Z,102266.33
2023-02-12T21:44:46.849Z,102268.2
2023-02-12T21:46:51.266Z,102268.33
2023-02-12T21:48:56.061Z,102267.73
2023-02-12T21:51:00.886Z,102265.32
2023-02-12T21:53:05.360Z,102267.48
2023-02-12T21:55:09.917Z,102267.33
2023-02-12T21:57:14.413Z,102268.47
2023-02-12T21:59:18.947Z,102270.34
2023-02-12T22:01:23.600Z,102265.48
2023-02-12T22:03:28.251Z,102275.89
2023-02-12T22:05:32.669Z,102283.11
2023-02-12T22:07:37.091Z,102283.92
2023-02-12T22:09:41.602Z,102282.68
2023-02-12T22:11:46.151Z,102285.25
2023-02-12T22:13:50.763Z,102287.26
2023-02-12T22:15:55.439Z,102278.28
2023-02-12T22:18:00.300Z,102280.59
2023-02-12T22:20:04.921Z,102284.97
2023-02-12T22:22:09.308Z,102277.16
2023-02-12T22:24:13.973Z,102276.74
2023-02-12T22:26:18.592Z,102283.22
2023-02-12T22:28:23.204Z,102279.73
2023-02-12T22:30:28.017Z,102282.2
2023-02-12T22:32:32.781Z,102280.44
2023-02-12T22:34:37.556Z,102282.85
2023-02-12T22:36:42.212Z,102280.02
2023-02-12T22:38:46.746Z,102281.17
2023-02-12T22:40:51.294Z,102282.11
2023-02-12T22:42:55.903Z,102279.11
2023-02-12T22:45:00.417Z,102276.84
2023-02-12T22:47:04.991Z,102271.35
2023-02-12T22:49:09.736Z,102273.94
2023-02-12T22:51:14.442Z,102280.06
2023-02-12T22:53:19.066Z,102280.72
2023-02-12T22:55:23.608Z,102277.88
2023-02-12T22:57:28.172Z,102282.38
2023-02-12T22:59:32.932Z,102278.69
2023-02-12T23:01:37.499Z,102283.18
2023-02-12T23:03:42.222Z,102279.86
2023-02-12T23:05:46.971Z,102278.58
2023-02-12T23:07:51.469Z,102278.29
2023-02-12T23:09:56.137Z,102276.85
2023-02-12T23:12:00.651Z,102272.2
2023-02-12T23:14:05.022Z,102274.55
2023-02-12T23:16:09.525Z,102272.69
2023-02-12T23:18:14.270Z,102267.63
2023-02-12T23:20:18.823Z,102269.19
2023-02-12T23:22:23.485Z,102267.58
2023-02-12T23:24:27.995Z,102264.92
2023-02-12T23:26:32.569Z,102264.39
2023-02-12T23:28:37.634Z,102262.77
2023-02-12T23:30:42.548Z,102266.84
2023-02-12T23:32:47.586Z,102266.3
2023-02-12T23:34:52.529Z,102264.08
2023-02-12T23:36:57.087Z,102260.14
2023-02-12T23:39:01.583Z,102262.47
2023-02-12T23:41:06.112Z,102263.14
2023-02-12T23:43:10.710Z,102262.34
2023-02-12T23:45:15.457Z,102254.98
2023-02-12T23:47:19.930Z,102255.88
2023-02-12T23:49:24.387Z,102250.56